Mc Coy, Texas
Current Conditions -  °F | °C
As of 4:35 PM on Monday 20 Oct 2014 (Local Time) from KPEZ Reporting Station
Clear Clear  
Wind Chill: 83°   Ceiling: Unl
Heat Index: 83°   Visibility: 10mi
Dew Point: 57°   Wind: 13mph
Humidity: 41%   Direction: 60°ENE
Pressure: 29.96"   Gusts: 17mph
Location:  28.8518°N, 98.2685°W
Report Text: KPEZ 202135Z AUTO 06011G15KT 10SM CLR 29/14 A2996 RMK AO2 T02850141
Loading
Personal Weather Stations






























Interactive Weather Map
Tropical Storm Tracking
New forecast layout! Learn more

10-Day Weather Forecast

Advertisements
Track Severe Weather on mobile